Aeroporto :
LOGIN :

Iscrizione | Disclaimer

   EN    FR    IT 

 










Sommario :    VFR   VFR Marginale   IFR   IFR Intensivo   IFR Molto Intensivo
Visibilità : 
Base nubi : 
>= 8 km
>= 3000ft
5 / 8 km
1000 / 3000 ft
1500m / 5 km
500 / 1000 ft
800 / 1500m
200 / 500 ft
< 800m
< 200 ft
Simboli :   Temporali  Nebbia  Neve Forte  Precipitazioni Forti  Vento > 20 kt
SIGMETs :   Varie  Temporali  Ghiacco  Turbolenza  Onda orograficha  Ceneri Vulcaniche







- Altitudine del aeroporto : 36 ft
- Codice IATA : LTQ
- Carte del aeroporto


LFAT - Le Touquet

ULTIMO METAR :
  • 181800Z AUTO 13004KT 9999 BKN037 BKN044 OVC220 06/03 Q1022 NOSIG

METARs OBSOLETI :
  • 181730Z AUTO 14005KT 9999 FEW044 06/03 Q1022 NOSIG
  • 181700Z AUTO 14005KT CAVOK 07/02 Q1022 NOSIG
  • 181630Z AUTO 16006KT CAVOK 09/03 Q1022 NOSIG
  • 181600Z AUTO 16007KT 120V190 CAVOK 10/02 Q1022 NOSIG
  • 181530Z AUTO 17007KT 130V200 CAVOK 10/02 Q1022 NOSIG

TAF TAF LFAT
Valido dal 18 a 15 ore il 19 a 00 ore UTC


181400Z 1815/1824 16007KT CAVOK
ATIS : +33 3 21 06 62 84
Nessun NOTAM noto per questo aeroporto.



MetMap, La meteo Aeronautica in un colpo d'occhio ! - Copyright ORBIFLY Dicembre 2007 - Disclaimer

ORBIFLY MET'MAP TEAM :

Programmazione e sviluppo : Alexandra Zaïnal
Concezione e sviluppo : Baudouin d'Aumeries
Co-Programmazione e sviluppo : Marc-Olivier Méhu
Supporto tecnico e logistico : Manuel Goepfert
Aiuto per la traduzione : Arnaldo La Scala

Contatto : metmap@orbifly.com




FONTI E CREDITI :

   NOAA